sensor_id;sensor_type;location;lat;lon;timestamp;pressure;altitude;pressure_sealevel;temperature;humidity
16194;BME280;8204;53.582;10.080;2023-11-21T00:00:35;99882.13;;;11.76;100.00
16194;BME280;8204;53.582;10.080;2023-11-21T00:03:00;99884.75;;;11.76;100.00
16194;BME280;8204;53.582;10.080;2023-11-21T00:05:25;99894.00;;;11.72;100.00
16194;BME280;8204;53.582;10.080;2023-11-21T00:07:52;99901.25;;;11.70;100.00
16194;BME280;8204;53.582;10.080;2023-11-21T00:10:17;99910.09;;;11.69;100.00
16194;BME280;8204;53.582;10.080;2023-11-21T00:12:43;99919.97;;;11.67;100.00
16194;BME280;8204;53.582;10.080;2023-11-21T00:15:09;99939.53;;;11.64;100.00
16194;BME280;8204;53.582;10.080;2023-11-21T00:17:36;99944.31;;;11.61;100.00
16194;BME280;8204;53.582;10.080;2023-11-21T00:20:03;99939.47;;;11.58;100.00
16194;BME280;8204;53.582;10.080;2023-11-21T00:22:35;99946.69;;;11.56;100.00
16194;BME280;8204;53.582;10.080;2023-11-21T00:25:01;99950.69;;;11.52;100.00
16194;BME280;8204;53.582;10.080;2023-11-21T00:27:26;99961.50;;;11.49;100.00
16194;BME280;8204;53.582;10.080;2023-11-21T00:29:52;99960.91;;;11.47;100.00
16194;BME280;8204;53.582;10.080;2023-11-21T00:32:17;99981.25;;;11.45;100.00
16194;BME280;8204;53.582;10.080;2023-11-21T00:34:43;99988.66;;;11.42;100.00
16194;BME280;8204;53.582;10.080;2023-11-21T00:37:09;99994.25;;;11.39;100.00
16194;BME280;8204;53.582;10.080;2023-11-21T00:39:35;100001.53;;;11.37;100.00
16194;BME280;8204;53.582;10.080;2023-11-21T00:42:00;100010.56;;;11.34;100.00
16194;BME280;8204;53.582;10.080;2023-11-21T00:44:26;100009.72;;;11.34;100.00
16194;BME280;8204;53.582;10.080;2023-11-21T00:46:53;100008.63;;;11.28;100.00
16194;BME280;8204;53.582;10.080;2023-11-21T00:49:19;100019.31;;;11.27;100.00
16194;BME280;8204;53.582;10.080;2023-11-21T00:51:45;100030.97;;;11.24;100.00
16194;BME280;8204;53.582;10.080;2023-11-21T00:54:12;100043.44;;;11.22;100.00
16194;BME280;8204;53.582;10.080;2023-11-21T00:56:37;100053.31;;;11.20;100.00
16194;BME280;8204;53.582;10.080;2023-11-21T00:59:03;100057.94;;;11.18;100.00
16194;BME280;8204;53.582;10.080;2023-11-21T01:01:30;100062.53;;;11.16;100.00
16194;BME280;8204;53.582;10.080;2023-11-21T01:03:55;100077.66;;;11.14;100.00
16194;BME280;8204;53.582;10.080;2023-11-21T01:06:20;100092.09;;;11.10;100.00
16194;BME280;8204;53.582;10.080;2023-11-21T01:08:46;100099.31;;;11.08;100.00
16194;BME280;8204;53.582;10.080;2023-11-21T01:11:13;100098.03;;;11.04;100.00
16194;BME280;8204;53.582;10.080;2023-11-21T01:13:39;100119.38;;;11.01;100.00
16194;BME280;8204;53.582;10.080;2023-11-21T01:16:05;100139.69;;;10.99;100.00
16194;BME280;8204;53.582;10.080;2023-11-21T01:18:37;100147.91;;;10.96;100.00
16194;BME280;8204;53.582;10.080;2023-11-21T01:21:03;100131.56;;;10.94;100.00
16194;BME280;8204;53.582;10.080;2023-11-21T01:23:30;100128.47;;;10.91;100.00
16194;BME280;8204;53.582;10.080;2023-11-21T01:25:56;100132.41;;;10.87;100.00
16194;BME280;8204;53.582;10.080;2023-11-21T01:28:22;100136.84;;;10.87;100.00
16194;BME280;8204;53.582;10.080;2023-11-21T01:30:49;100151.28;;;10.83;100.00
16194;BME280;8204;53.582;10.080;2023-11-21T01:33:15;100150.66;;;10.81;100.00
16194;BME280;8204;53.582;10.080;2023-11-21T01:35:41;100153.63;;;10.78;100.00
16194;BME280;8204;53.582;10.080;2023-11-21T01:38:07;100160.84;;;10.76;100.00
16194;BME280;8204;53.582;10.080;2023-11-21T01:40:33;100159.22;;;10.75;100.00
16194;BME280;8204;53.582;10.080;2023-11-21T01:43:00;100187.38;;;10.73;100.00
16194;BME280;8204;53.582;10.080;2023-11-21T01:45:25;100198.84;;;10.72;100.00
16194;BME280;8204;53.582;10.080;2023-11-21T01:47:51;100199.84;;;10.71;100.00
16194;BME280;8204;53.582;10.080;2023-11-21T01:50:18;100198.38;;;10.68;100.00
16194;BME280;8204;53.582;10.080;2023-11-21T01:52:45;100195.28;;;10.65;100.00
16194;BME280;8204;53.582;10.080;2023-11-21T01:55:11;100208.56;;;10.63;100.00
16194;BME280;8204;53.582;10.080;2023-11-21T01:57:37;100209.72;;;10.61;100.00
16194;BME280;8204;53.582;10.080;2023-11-21T02:00:04;100217.28;;;10.56;100.00
16194;BME280;8204;53.582;10.080;2023-11-21T02:02:44;100227.13;;;10.54;100.00
16194;BME280;8204;53.582;10.080;2023-11-21T02:05:11;100230.72;;;10.53;100.00
16194;BME280;8204;53.582;10.080;2023-11-21T02:07:39;100243.00;;;10.52;100.00
16194;BME280;8204;53.582;10.080;2023-11-21T02:10:06;100254.63;;;10.50;100.00
16194;BME280;8204;53.582;10.080;2023-11-21T02:12:33;100264.47;;;10.48;100.00
16194;BME280;8204;53.582;10.080;2023-11-21T02:14:58;100270.69;;;10.47;100.00
16194;BME280;8204;53.582;10.080;2023-11-21T02:17:24;100271.84;;;10.44;100.00
16194;BME280;8204;53.582;10.080;2023-11-21T02:19:49;100279.88;;;10.43;100.00
16194;BME280;8204;53.582;10.080;2023-11-21T02:22:17;100294.75;;;10.42;100.00
16194;BME280;8204;53.582;10.080;2023-11-21T02:24:45;100307.19;;;10.40;100.00
16194;BME280;8204;53.582;10.080;2023-11-21T02:27:11;100314.44;;;10.38;100.00
16194;BME280;8204;53.582;10.080;2023-11-21T02:29:37;100322.44;;;10.37;100.00
16194;BME280;8204;53.582;10.080;2023-11-21T02:32:03;100324.41;;;10.35;100.00
16194;BME280;8204;53.582;10.080;2023-11-21T02:34:29;100322.97;;;10.32;100.00
16194;BME280;8204;53.582;10.080;2023-11-21T02:36:54;100321.50;;;10.30;100.00
16194;BME280;8204;53.582;10.080;2023-11-21T02:39:21;100335.56;;;10.29;100.00
16194;BME280;8204;53.582;10.080;2023-11-21T02:41:49;100343.75;;;10.26;100.00
16194;BME280;8204;53.582;10.080;2023-11-21T02:44:15;100356.84;;;10.26;100.00
16194;BME280;8204;53.582;10.080;2023-11-21T02:46:40;100360.44;;;10.25;100.00
16194;BME280;8204;53.582;10.080;2023-11-21T02:49:06;100369.25;;;10.24;100.00
16194;BME280;8204;53.582;10.080;2023-11-21T02:51:33;100363.41;;;10.22;100.00
16194;BME280;8204;53.582;10.080;2023-11-21T02:54:00;100371.25;;;10.22;100.00
16194;BME280;8204;53.582;10.080;2023-11-21T02:56:28;100372.41;;;10.19;100.00
16194;BME280;8204;53.582;10.080;2023-11-21T02:58:57;100382.03;;;10.19;100.00
16194;BME280;8204;53.582;10.080;2023-11-21T03:01:23;100381.22;;;10.18;100.00
16194;BME280;8204;53.582;10.080;2023-11-21T03:03:51;100381.22;;;10.18;100.00
16194;BME280;8204;53.582;10.080;2023-11-21T03:06:18;100377.94;;;10.17;100.00
16194;BME280;8204;53.582;10.080;2023-11-21T03:08:44;100373.69;;;10.16;100.00
16194;BME280;8204;53.582;10.080;2023-11-21T03:11:09;100379.09;;;10.14;100.00
16194;BME280;8204;53.582;10.080;2023-11-21T03:13:34;100381.72;;;10.14;100.00
16194;BME280;8204;53.582;10.080;2023-11-21T03:16:00;100391.53;;;10.12;100.00
16194;BME280;8204;53.582;10.080;2023-11-21T03:18:26;100405.59;;;10.11;100.00
16194;BME280;8204;53.582;10.080;2023-11-21T03:20:52;100404.13;;;10.09;100.00
16194;BME280;8204;53.582;10.080;2023-11-21T03:23:18;100424.44;;;10.07;100.00
16194;BME280;8204;53.582;10.080;2023-11-21T03:25:44;100423.59;;;10.06;100.00
16194;BME280;8204;53.582;10.080;2023-11-21T03:28:10;100424.56;;;10.05;100.00
16194;BME280;8204;53.582;10.080;2023-11-21T03:30:35;100436.03;;;10.04;100.00
16194;BME280;8204;53.582;10.080;2023-11-21T03:33:02;100435.56;;;10.01;100.00
16194;BME280;8204;53.582;10.080;2023-11-21T03:35:28;100445.19;;;10.00;100.00
16194;BME280;8204;53.582;10.080;2023-11-21T03:37:55;100440.94;;;9.99;100.00
16194;BME280;8204;53.582;10.080;2023-11-21T03:40:21;100447.13;;;9.98;100.00
16194;BME280;8204;53.582;10.080;2023-11-21T03:42:47;100461.25;;;9.97;100.00
16194;BME280;8204;53.582;10.080;2023-11-21T03:45:13;100460.53;;;9.95;100.00
16194;BME280;8204;53.582;10.080;2023-11-21T03:47:41;100471.97;;;9.94;100.00
16194;BME280;8204;53.582;10.080;2023-11-21T03:50:07;100465.94;;;9.94;100.00
16194;BME280;8204;53.582;10.080;2023-11-21T03:52:34;100475.56;;;9.93;100.00
16194;BME280;8204;53.582;10.080;2023-11-21T03:55:03;100486.03;;;9.93;100.00
16194;BME280;8204;53.582;10.080;2023-11-21T03:57:29;100493.22;;;9.91;100.00
16194;BME280;8204;53.582;10.080;2023-11-21T03:59:55;100498.47;;;9.91;100.00
16194;BME280;8204;53.582;10.080;2023-11-21T04:02:20;100499.47;;;9.90;100.00
16194;BME280;8204;53.582;10.080;2023-11-21T04:04:46;100503.06;;;9.89;100.00
16194;BME280;8204;53.582;10.080;2023-11-21T04:07:12;100498.78;;;9.88;100.00
16194;BME280;8204;53.582;10.080;2023-11-21T04:09:39;100502.22;;;9.89;100.00
16194;BME280;8204;53.582;10.080;2023-11-21T04:12:05;100514.50;;;9.88;100.00
16194;BME280;8204;53.582;10.080;2023-11-21T04:14:31;100509.25;;;9.88;100.00
16194;BME280;8204;53.582;10.080;2023-11-21T04:16:57;100508.44;;;9.88;100.00
16194;BME280;8204;53.582;10.080;2023-11-21T04:19:23;100507.63;;;9.87;100.00
16194;BME280;8204;53.582;10.080;2023-11-21T04:21:48;100518.09;;;9.87;100.00
16194;BME280;8204;53.582;10.080;2023-11-21T04:24:14;100516.28;;;9.88;100.00
16194;BME280;8204;53.582;10.080;2023-11-21T04:26:41;100524.97;;;9.88;100.00
16194;BME280;8204;53.582;10.080;2023-11-21T04:29:07;100513.53;;;9.89;100.00
16194;BME280;8204;53.582;10.080;2023-11-21T04:31:33;100521.38;;;9.89;100.00
16194;BME280;8204;53.582;10.080;2023-11-21T04:33:58;100526.59;;;9.89;100.00
16194;BME280;8204;53.582;10.080;2023-11-21T04:36:24;100530.88;;;9.90;100.00
16194;BME280;8204;53.582;10.080;2023-11-21T04:38:49;100520.53;;;9.89;100.00
16194;BME280;8204;53.582;10.080;2023-11-21T04:41:15;100524.00;;;9.89;100.00
16194;BME280;8204;53.582;10.080;2023-11-21T04:43:40;100546.56;;;9.90;100.00
16194;BME280;8204;53.582;10.080;2023-11-21T04:46:05;100539.69;;;9.89;100.00
16194;BME280;8204;53.582;10.080;2023-11-21T04:48:32;100533.63;;;9.89;100.00
16194;BME280;8204;53.582;10.080;2023-11-21T04:50:58;100530.19;;;9.88;100.00
16194;BME280;8204;53.582;10.080;2023-11-21T04:53:24;100540.66;;;9.88;100.00
16194;BME280;8204;53.582;10.080;2023-11-21T04:55:50;100539.03;;;9.87;100.00
16194;BME280;8204;53.582;10.080;2023-11-21T04:58:15;100540.66;;;9.88;100.00
16194;BME280;8204;53.582;10.080;2023-11-21T05:00:41;100546.88;;;9.87;100.00
16194;BME280;8204;53.582;10.080;2023-11-21T05:03:09;100556.38;;;9.88;100.00
16194;BME280;8204;53.582;10.080;2023-11-21T05:05:35;100560.75;;;9.88;100.00
16194;BME280;8204;53.582;10.080;2023-11-21T05:08:01;100573.84;;;9.88;100.00
16194;BME280;8204;53.582;10.080;2023-11-21T05:10:27;100580.88;;;9.87;100.00
16194;BME280;8204;53.582;10.080;2023-11-21T05:12:52;100583.50;;;9.87;100.00
16194;BME280;8204;53.582;10.080;2023-11-21T05:15:17;100581.69;;;9.88;100.00
16194;BME280;8204;53.582;10.080;2023-11-21T05:17:43;100586.13;;;9.87;100.00
16194;BME280;8204;53.582;10.080;2023-11-21T05:20:13;100594.94;;;9.86;100.00
16194;BME280;8204;53.582;10.080;2023-11-21T05:22:40;100595.78;;;9.87;100.00
16194;BME280;8204;53.582;10.080;2023-11-21T05:25:06;100608.03;;;9.86;100.00
16194;BME280;8204;53.582;10.080;2023-11-21T05:27:33;100607.22;;;9.86;100.00
16194;BME280;8204;53.582;10.080;2023-11-21T05:30:00;100614.91;;;9.87;100.00
16194;BME280;8204;53.582;10.080;2023-11-21T05:32:26;100623.72;;;9.86;100.00
16194;BME280;8204;53.582;10.080;2023-11-21T05:34:52;100612.47;;;9.86;100.00
16194;BME280;8204;53.582;10.080;2023-11-21T05:37:17;100631.59;;;9.86;100.00
16194;BME280;8204;53.582;10.080;2023-11-21T05:39:43;100627.31;;;9.85;100.00
16194;BME280;8204;53.582;10.080;2023-11-21T05:42:09;100630.94;;;9.84;100.00
16194;BME280;8204;53.582;10.080;2023-11-21T05:44:41;100638.78;;;9.84;100.00
16194;BME280;8204;53.582;10.080;2023-11-21T05:47:08;100650.88;;;9.85;100.00
16194;BME280;8204;53.582;10.080;2023-11-21T05:49:33;100651.03;;;9.84;100.00
16194;BME280;8204;53.582;10.080;2023-11-21T05:51:59;100656.44;;;9.82;100.00
16194;BME280;8204;53.582;10.080;2023-11-21T05:54:24;100656.44;;;9.82;100.00
16194;BME280;8204;53.582;10.080;2023-11-21T05:56:50;100671.31;;;9.82;100.00
16194;BME280;8204;53.582;10.080;2023-11-21T05:59:16;100675.72;;;9.81;100.00
16194;BME280;8204;53.582;10.080;2023-11-21T06:01:41;100684.56;;;9.80;100.00
16194;BME280;8204;53.582;10.080;2023-11-21T06:04:06;100684.56;;;9.80;100.00
16194;BME280;8204;53.582;10.080;2023-11-21T06:06:36;100702.19;;;9.78;100.00
16194;BME280;8204;53.582;10.080;2023-11-21T06:09:01;100702.19;;;9.78;100.00
16194;BME280;8204;53.582;10.080;2023-11-21T06:11:28;100715.28;;;9.78;100.00
16194;BME280;8204;53.582;10.080;2023-11-21T06:13:53;100714.47;;;9.78;100.00
16194;BME280;8204;53.582;10.080;2023-11-21T06:16:19;100721.50;;;9.77;100.00
16194;BME280;8204;53.582;10.080;2023-11-21T06:18:47;100723.28;;;9.77;100.00
16194;BME280;8204;53.582;10.080;2023-11-21T06:21:13;100720.66;;;9.77;100.00
16194;BME280;8204;53.582;10.080;2023-11-21T06:23:39;100721.50;;;9.77;100.00
16194;BME280;8204;53.582;10.080;2023-11-21T06:26:05;100730.31;;;9.76;100.00
16194;BME280;8204;53.582;10.080;2023-11-21T06:28:31;100729.34;;;9.77;100.00
16194;BME280;8204;53.582;10.080;2023-11-21T06:30:56;100735.41;;;9.78;100.00
16194;BME280;8204;53.582;10.080;2023-11-21T06:33:24;100743.41;;;9.76;100.00
16194;BME280;8204;53.582;10.080;2023-11-21T06:35:52;100754.84;;;9.75;100.00
16194;BME280;8204;53.582;10.080;2023-11-21T06:38:17;100755.53;;;9.77;100.00
16194;BME280;8204;53.582;10.080;2023-11-21T06:40:43;100751.25;;;9.76;100.00
16194;BME280;8204;53.582;10.080;2023-11-21T06:43:09;100765.16;;;9.77;100.00
16194;BME280;8204;53.582;10.080;2023-11-21T06:45:35;100771.34;;;9.76;100.00
16194;BME280;8204;53.582;10.080;2023-11-21T06:48:01;100787.06;;;9.76;100.00
16194;BME280;8204;53.582;10.080;2023-11-21T06:50:26;100784.44;;;9.76;100.00
16194;BME280;8204;53.582;10.080;2023-11-21T06:52:52;100773.97;;;9.76;100.00
16194;BME280;8204;53.582;10.080;2023-11-21T06:55:18;100778.22;;;9.77;100.00
16194;BME280;8204;53.582;10.080;2023-11-21T06:57:43;100783.63;;;9.75;100.00
16194;BME280;8204;53.582;10.080;2023-11-21T07:00:10;100796.56;;;9.77;100.00
16194;BME280;8204;53.582;10.080;2023-11-21T07:02:36;100793.13;;;9.76;100.00
16194;BME280;8204;53.582;10.080;2023-11-21T07:05:02;100803.44;;;9.78;100.00
16194;BME280;8204;53.582;10.080;2023-11-21T07:07:27;100810.47;;;9.77;100.00
16194;BME280;8204;53.582;10.080;2023-11-21T07:09:53;100807.84;;;9.77;100.00
16194;BME280;8204;53.582;10.080;2023-11-21T07:12:19;100805.25;;;9.77;100.00
16194;BME280;8204;53.582;10.080;2023-11-21T07:14:44;100813.75;;;9.79;100.00
16194;BME280;8204;53.582;10.080;2023-11-21T07:17:11;100822.44;;;9.80;100.00
16194;BME280;8204;53.582;10.080;2023-11-21T07:19:38;100818.00;;;9.80;100.00
16194;BME280;8204;53.582;10.080;2023-11-21T07:22:03;100825.03;;;9.80;100.00
16194;BME280;8204;53.582;10.080;2023-11-21T07:24:32;100827.66;;;9.80;100.00
16194;BME280;8204;53.582;10.080;2023-11-21T07:26:57;100842.41;;;9.81;100.00
16194;BME280;8204;53.582;10.080;2023-11-21T07:29:24;100858.91;;;9.81;100.00
16194;BME280;8204;53.582;10.080;2023-11-21T07:31:55;100872.97;;;9.80;100.00
16194;BME280;8204;53.582;10.080;2023-11-21T07:34:21;100868.56;;;9.81;100.00
16194;BME280;8204;53.582;10.080;2023-11-21T07:36:46;100875.56;;;9.80;100.00
16194;BME280;8204;53.582;10.080;2023-11-21T07:39:12;100880.81;;;9.80;100.00
16194;BME280;8204;53.582;10.080;2023-11-21T07:41:38;100882.63;;;9.80;100.00
16194;BME280;8204;53.582;10.080;2023-11-21T07:44:10;100883.44;;;9.80;100.00
16194;BME280;8204;53.582;10.080;2023-11-21T07:46:35;100873.81;;;9.81;100.00
16194;BME280;8204;53.582;10.080;2023-11-21T07:49:01;100880.81;;;9.80;100.00
16194;BME280;8204;53.582;10.080;2023-11-21T07:51:26;100896.34;;;9.82;100.00
16194;BME280;8204;53.582;10.080;2023-11-21T07:53:52;100892.78;;;9.83;100.00
16194;BME280;8204;53.582;10.080;2023-11-21T07:56:17;100894.41;;;9.84;100.00
16194;BME280;8204;53.582;10.080;2023-11-21T07:58:43;100900.50;;;9.84;100.00
16194;BME280;8204;53.582;10.080;2023-11-21T08:01:09;100903.09;;;9.84;100.00
16194;BME280;8204;53.582;10.080;2023-11-21T08:03:35;100916.19;;;9.84;100.00
16194;BME280;8204;53.582;10.080;2023-11-21T08:06:00;100930.91;;;9.85;100.00
16194;BME280;8204;53.582;10.080;2023-11-21T08:08:26;100936.13;;;9.85;100.00
16194;BME280;8204;53.582;10.080;2023-11-21T08:10:52;100930.78;;;9.87;100.00
16194;BME280;8204;53.582;10.080;2023-11-21T08:13:24;100928.97;;;9.87;100.00
16194;BME280;8204;53.582;10.080;2023-11-21T08:15:53;100926.34;;;9.87;100.00
16194;BME280;8204;53.582;10.080;2023-11-21T08:18:19;100929.66;;;9.89;100.00
16194;BME280;8204;53.582;10.080;2023-11-21T08:20:44;100944.50;;;9.89;100.00
16194;BME280;8204;53.582;10.080;2023-11-21T08:23:14;100951.22;;;9.91;100.00
16194;BME280;8204;53.582;10.080;2023-11-21T08:25:41;100965.84;;;9.94;100.00
16194;BME280;8204;53.582;10.080;2023-11-21T08:28:07;100964.03;;;9.94;100.00
16194;BME280;8204;53.582;10.080;2023-11-21T08:30:32;100971.63;;;9.97;100.00
16194;BME280;8204;53.582;10.080;2023-11-21T08:32:58;100985.38;;;9.99;100.00
16194;BME280;8204;53.582;10.080;2023-11-21T08:35:24;100980.03;;;10.01;100.00
16194;BME280;8204;53.582;10.080;2023-11-21T08:37:53;100994.59;;;10.03;100.00
16194;BME280;8204;53.582;10.080;2023-11-21T08:40:19;100987.41;;;10.05;100.00
16194;BME280;8204;53.582;10.080;2023-11-21T08:42:47;100999.53;;;10.06;100.00
16194;BME280;8204;53.582;10.080;2023-11-21T08:45:16;101013.59;;;10.05;100.00
16194;BME280;8204;53.582;10.080;2023-11-21T08:47:43;101013.47;;;10.07;100.00
16194;BME280;8204;53.582;10.080;2023-11-21T08:50:12;101023.09;;;10.06;100.00
16194;BME280;8204;53.582;10.080;2023-11-21T08:52:38;101028.16;;;10.08;100.00
16194;BME280;8204;53.582;10.080;2023-11-21T08:55:06;101039.47;;;10.08;100.00
16194;BME280;8204;53.582;10.080;2023-11-21T08:57:35;101055.47;;;10.05;100.00
16194;BME280;8204;53.582;10.080;2023-11-21T09:00:02;101058.78;;;10.07;100.00
16194;BME280;8204;53.582;10.080;2023-11-21T09:02:28;101056.97;;;10.08;100.00
16194;BME280;8204;53.582;10.080;2023-11-21T09:04:53;101068.44;;;10.07;100.00
16194;BME280;8204;53.582;10.080;2023-11-21T09:07:19;101093.25;;;10.03;100.00
16194;BME280;8204;53.582;10.080;2023-11-21T09:09:47;101108.28;;;10.01;100.00
16194;BME280;8204;53.582;10.080;2023-11-21T09:12:14;101107.44;;;10.00;100.00
16194;BME280;8204;53.582;10.080;2023-11-21T09:14:39;101096.16;;;10.00;100.00
16194;BME280;8204;53.582;10.080;2023-11-21T09:17:05;101088.31;;;10.00;100.00
16194;BME280;8204;53.582;10.080;2023-11-21T09:19:42;101085.69;;;10.00;100.00
16194;BME280;8204;53.582;10.080;2023-11-21T09:22:10;101072.28;;;10.03;100.00
16194;BME280;8204;53.582;10.080;2023-11-21T09:24:36;101080.00;;;10.04;100.00
16194;BME280;8204;53.582;10.080;2023-11-21T09:27:03;101075.59;;;10.05;100.00
16194;BME280;8204;53.582;10.080;2023-11-21T09:29:30;101089.50;;;10.05;100.00
16194;BME280;8204;53.582;10.080;2023-11-21T09:31:57;101098.19;;;10.06;100.00
16194;BME280;8204;53.582;10.080;2023-11-21T09:34:25;101096.22;;;10.08;100.00
16194;BME280;8204;53.582;10.080;2023-11-21T09:36:51;101096.75;;;10.11;100.00
16194;BME280;8204;53.582;10.080;2023-11-21T09:39:17;101089.59;;;10.13;100.00
16194;BME280;8204;53.582;10.080;2023-11-21T09:41:48;101087.81;;;10.14;100.00
16194;BME280;8204;53.582;10.080;2023-11-21T09:44:18;101084.09;;;10.16;100.00
16194;BME280;8204;53.582;10.080;2023-11-21T09:46:47;101092.59;;;10.18;100.00
16194;BME280;8204;53.582;10.080;2023-11-21T09:49:14;101101.13;;;10.20;100.00
16194;BME280;8204;53.582;10.080;2023-11-21T09:51:43;101110.47;;;10.22;100.00
16194;BME280;8204;53.582;10.080;2023-11-21T09:54:10;101109.69;;;10.22;100.00
16194;BME280;8204;53.582;10.080;2023-11-21T09:56:37;101118.19;;;10.24;100.00
16194;BME280;8204;53.582;10.080;2023-11-21T09:59:03;101115.13;;;10.28;100.00
16194;BME280;8204;53.582;10.080;2023-11-21T10:01:32;101106.16;;;10.31;100.00
16194;BME280;8204;53.582;10.080;2023-11-21T10:03:58;101107.66;;;10.33;100.00
16194;BME280;8204;53.582;10.080;2023-11-21T10:06:25;101113.41;;;10.37;100.00
16194;BME280;8204;53.582;10.080;2023-11-21T10:08:53;101116.72;;;10.39;100.00
16194;BME280;8204;53.582;10.080;2023-11-21T10:11:19;101131.47;;;10.40;100.00
16194;BME280;8204;53.582;10.080;2023-11-21T10:13:47;101151.16;;;10.44;100.00
16194;BME280;8204;53.582;10.080;2023-11-21T10:16:15;101149.66;;;10.41;100.00
16194;BME280;8204;53.582;10.080;2023-11-21T10:18:47;101164.41;;;10.42;100.00
16194;BME280;8204;53.582;10.080;2023-11-21T10:21:14;101163.28;;;10.45;100.00
16194;BME280;8204;53.582;10.080;2023-11-21T10:23:40;101151.69;;;10.47;100.00
16194;BME280;8204;53.582;10.080;2023-11-21T10:26:07;101161.03;;;10.50;100.00
16194;BME280;8204;53.582;10.080;2023-11-21T10:28:37;101157.16;;;10.54;100.00
16194;BME280;8204;53.582;10.080;2023-11-21T10:31:06;101186.00;;;10.54;100.00
16194;BME280;8204;53.582;10.080;2023-11-21T10:33:32;101200.44;;;10.58;100.00
16194;BME280;8204;53.582;10.080;2023-11-21T10:35:58;101188.81;;;10.60;100.00
16194;BME280;8204;53.582;10.080;2023-11-21T10:38:26;101183.31;;;10.63;100.00
16194;BME280;8204;53.582;10.080;2023-11-21T10:40:54;101220.00;;;10.63;100.00
16194;BME280;8204;53.582;10.080;2023-11-21T10:43:20;101212.81;;;10.65;100.00
16194;BME280;8204;53.582;10.080;2023-11-21T10:45:50;101227.69;;;10.65;100.00
16194;BME280;8204;53.582;10.080;2023-11-21T10:48:15;101224.91;;;10.66;100.00
16194;BME280;8204;53.582;10.080;2023-11-21T10:50:41;101239.84;;;10.66;100.00
16194;BME280;8204;53.582;10.080;2023-11-21T10:53:06;101258.88;;;10.68;100.00
16194;BME280;8204;53.582;10.080;2023-11-21T10:55:33;101255.28;;;10.69;100.00
16194;BME280;8204;53.582;10.080;2023-11-21T10:58:00;101279.00;;;10.67;100.00
16194;BME280;8204;53.582;10.080;2023-11-21T11:00:28;101291.28;;;10.67;100.00
16194;BME280;8204;53.582;10.080;2023-11-21T11:02:55;101274.59;;;10.68;100.00
16194;BME280;8204;53.582;10.080;2023-11-21T11:05:23;101311.03;;;10.61;100.00
16194;BME280;8204;53.582;10.080;2023-11-21T11:07:58;101311.03;;;10.61;100.00
16194;BME280;8204;53.582;10.080;2023-11-21T11:10:29;101296.16;;;10.62;100.00
16194;BME280;8204;53.582;10.080;2023-11-21T11:12:56;101301.38;;;10.62;100.00
16194;BME280;8204;53.582;10.080;2023-11-21T11:15:26;101323.47;;;10.59;100.00
16194;BME280;8204;53.582;10.080;2023-11-21T11:17:53;101346.38;;;10.57;100.00
16194;BME280;8204;53.582;10.080;2023-11-21T11:20:33;101348.13;;;10.57;100.00
16194;BME280;8204;53.582;10.080;2023-11-21T11:25:57;101351.06;;;10.54;100.00
16194;BME280;8204;53.582;10.080;2023-11-21T11:31:42;101328.44;;;10.53;100.00
16194;BME280;8204;53.582;10.080;2023-11-21T11:34:32;101338.91;;;10.53;100.00
16194;BME280;8204;53.582;10.080;2023-11-21T11:37:03;101361.69;;;10.52;100.00
16194;BME280;8204;53.582;10.080;2023-11-21T11:39:38;101380.16;;;10.51;100.00
16194;BME280;8204;53.582;10.080;2023-11-21T11:42:08;101392.28;;;10.52;100.00
16194;BME280;8204;53.582;10.080;2023-11-21T11:47:22;101404.84;;;10.48;100.00
16194;BME280;8204;53.582;10.080;2023-11-21T11:49:56;101398.81;;;10.48;100.00
16194;BME280;8204;53.582;10.080;2023-11-21T11:52:38;101376.88;;;10.49;100.00
16194;BME280;8204;53.582;10.080;2023-11-21T11:55:06;101367.06;;;10.51;100.00
16194;BME280;8204;53.582;10.080;2023-11-21T11:57:34;101367.91;;;10.51;100.00
16194;BME280;8204;53.582;10.080;2023-11-21T12:02:51;101374.66;;;10.54;100.00
16194;BME280;8204;53.582;10.080;2023-11-21T12:05:19;101364.00;;;10.55;100.00
16194;BME280;8204;53.582;10.080;2023-11-21T12:10:19;101355.72;;;10.60;100.00
16194;BME280;8204;53.582;10.080;2023-11-21T12:12:49;101370.47;;;10.61;100.00
16194;BME280;8204;53.582;10.080;2023-11-21T12:15:15;101383.59;;;10.61;100.00
16194;BME280;8204;53.582;10.080;2023-11-21T12:17:42;101401.78;;;10.62;100.00
16194;BME280;8204;53.582;10.080;2023-11-21T12:20:11;101415.31;;;10.58;100.00
16194;BME280;8204;53.582;10.080;2023-11-21T12:22:45;101442.91;;;10.52;100.00
16194;BME280;8204;53.582;10.080;2023-11-21T12:25:16;101442.06;;;10.52;100.00
16194;BME280;8204;53.582;10.080;2023-11-21T12:27:50;101438.66;;;10.51;100.00
16194;BME280;8204;53.582;10.080;2023-11-21T12:30:18;101453.81;;;10.48;100.00
16194;BME280;8204;53.582;10.080;2023-11-21T12:32:45;101463.06;;;10.42;100.00
16194;BME280;8204;53.582;10.080;2023-11-21T12:35:13;101462.50;;;10.39;100.00
16194;BME280;8204;53.582;10.080;2023-11-21T12:37:40;101456.56;;;10.37;100.00
16194;BME280;8204;53.582;10.080;2023-11-21T12:40:07;101449.72;;;10.36;100.00
16194;BME280;8204;53.582;10.080;2023-11-21T12:42:41;101450.66;;;10.35;100.00
16194;BME280;8204;53.582;10.080;2023-11-21T12:45:10;101438.53;;;10.34;100.00
16194;BME280;8204;53.582;10.080;2023-11-21T12:47:50;101454.50;;;10.31;100.00
16194;BME280;8204;53.582;10.080;2023-11-21T12:50:20;101459.09;;;10.29;100.00
16194;BME280;8204;53.582;10.080;2023-11-21T12:52:50;101449.56;;;10.28;100.00
16194;BME280;8204;53.582;10.080;2023-11-21T12:55:17;101461.97;;;10.26;100.00
16194;BME280;8204;53.582;10.080;2023-11-21T12:57:48;101482.38;;;10.22;100.00